Windfall, Indiana
Current Conditions -  °F | °C
As of 8:55 PM on Monday 20 Oct 2014 (Local Time) from KOKK Reporting Station
Broken Clouds Broken Clouds  
Wind Chill: 55°   Ceiling: 9500
Heat Index: 55°   Visibility: 10mi
Dew Point: 19°   Wind: 8mph
Humidity: 25%   Direction: 350°N
Pressure: 29.92"   Gusts: NA
Location:  40.36°N, 85.96°W
Report Text: KOKK 210055Z AUTO 35007KT 10SM FEW070 BKN095 13/M07 A2992 RMK AO1
Loading
Personal Weather Stations






























Interactive Weather Map
Tropical Storm Tracking
New forecast layout! Learn more

10-Day Weather Forecast

Advertisements
Track Severe Weather on mobile